createdAt,value
2023-01-05T00:02:24.881Z,3.25
2023-01-05T00:07:28.122Z,3.33
2023-01-05T00:12:49.672Z,3.26
2023-01-05T00:18:11.403Z,3.37
2023-01-05T00:23:14.560Z,3.31
2023-01-05T00:28:17.690Z,3.47
2023-01-05T00:33:20.738Z,3.11
2023-01-05T00:38:23.878Z,3.10
2023-01-05T00:43:26.921Z,3.33
2023-01-05T00:48:30.017Z,3.27
2023-01-05T00:53:33.122Z,3.13
2023-01-05T00:58:36.140Z,3.05
2023-01-05T01:03:39.574Z,3.03
2023-01-05T01:08:42.843Z,3.02
2023-01-05T01:13:46.327Z,3.10
2023-01-05T01:18:50.215Z,2.89
2023-01-05T01:23:53.772Z,2.93
2023-01-05T01:29:01.653Z,3.04
2023-01-05T01:34:05.781Z,3.04
2023-01-05T01:39:09.067Z,2.92
2023-01-05T01:44:48.521Z,2.96
2023-01-05T01:49:55.743Z,2.85
2023-01-05T01:55:00.416Z,2.72
2023-01-05T02:00:07.005Z,2.91
2023-01-05T02:05:32.617Z,2.75
2023-01-05T02:10:57.028Z,2.78
2023-01-05T02:16:06.091Z,2.89
2023-01-05T02:27:05.880Z,2.81
2023-01-05T02:32:27.419Z,2.83
2023-01-05T02:37:41.202Z,2.48
2023-01-05T02:42:46.196Z,2.61
2023-01-05T02:47:50.243Z,2.47
2023-01-05T02:53:28.836Z,2.60
2023-01-05T02:58:40.697Z,2.43
2023-01-05T03:03:54.415Z,2.54
2023-01-05T03:09:02.557Z,2.46
2023-01-05T03:14:23.933Z,2.66
2023-01-05T03:19:41.695Z,2.48
2023-01-05T03:25:07.259Z,2.47
2023-01-05T03:30:32.725Z,2.35
2023-01-05T03:35:42.760Z,2.44
2023-01-05T03:40:47.233Z,2.48
2023-01-05T03:45:57.028Z,2.40
2023-01-05T03:51:03.370Z,2.44
2023-01-05T03:56:06.885Z,2.56
2023-01-05T04:01:10.962Z,2.51
2023-01-05T04:06:15.111Z,2.28
2023-01-05T04:11:20.875Z,2.43
2023-01-05T04:16:31.493Z,2.47
2023-01-05T04:21:38.366Z,2.43
2023-01-05T04:26:43.017Z,2.28
2023-01-05T04:31:46.977Z,2.40
2023-01-05T04:36:50.150Z,2.41
2023-01-05T04:41:56.598Z,2.44
2023-01-05T04:46:59.897Z,2.28
2023-01-05T04:52:03.172Z,2.44
2023-01-05T04:57:09.915Z,2.47
2023-01-05T05:02:15.576Z,2.49
2023-01-05T05:07:20.787Z,2.47
2023-01-05T05:12:24.593Z,2.46
2023-01-05T05:17:31.724Z,2.39
2023-01-05T05:22:35.079Z,2.41
2023-01-05T05:27:39.606Z,2.35
2023-01-05T05:32:44.576Z,2.39
2023-01-05T05:37:52.851Z,2.20
2023-01-05T05:42:59.177Z,2.30
2023-01-05T05:48:02.295Z,2.38
2023-01-05T05:53:05.363Z,2.57
2023-01-05T05:58:16.694Z,2.56
2023-01-05T06:03:19.872Z,2.58
2023-01-05T06:08:24.333Z,2.58
2023-01-05T06:13:27.503Z,2.66
2023-01-05T06:18:30.603Z,2.75
2023-01-05T06:23:33.736Z,2.76
2023-01-05T06:28:36.861Z,2.93
2023-01-05T06:33:42.779Z,2.93
2023-01-05T06:38:46.133Z,3.08
2023-01-05T06:43:49.225Z,2.89
2023-01-05T06:48:52.375Z,3.16
2023-01-05T06:53:55.475Z,3.27
2023-01-05T06:58:58.617Z,3.14
2023-01-05T07:04:01.917Z,3.26
2023-01-05T07:09:05.094Z,3.34
2023-01-05T07:14:08.238Z,3.33
2023-01-05T07:19:11.444Z,3.50
2023-01-05T07:24:14.555Z,3.45
2023-01-05T07:29:17.941Z,3.44
2023-01-05T07:34:22.177Z,3.55
2023-01-05T07:39:25.236Z,3.68
2023-01-05T07:44:33.702Z,3.57
2023-01-05T07:49:41.709Z,3.39
2023-01-05T07:54:45.619Z,3.53
2023-01-05T07:59:48.739Z,3.35
2023-01-05T08:04:51.833Z,3.58
2023-01-05T08:10:13.514Z,3.40
2023-01-05T08:15:17.003Z,3.31
2023-01-05T08:20:20.077Z,3.48
2023-01-05T08:25:23.154Z,3.56
2023-01-05T08:30:26.461Z,3.53
2023-01-05T08:35:29.735Z,3.36
2023-01-05T08:40:32.804Z,3.52
2023-01-05T08:45:35.983Z,3.35
2023-01-05T08:50:39.090Z,3.38
2023-01-05T08:55:42.178Z,3.48
2023-01-05T09:00:45.617Z,3.48
2023-01-05T09:05:49.086Z,3.25
2023-01-05T09:10:52.168Z,3.55
2023-01-05T09:15:55.199Z,3.44
2023-01-05T09:20:58.880Z,3.47
2023-01-05T09:26:04.952Z,3.34
2023-01-05T09:31:13.077Z,3.56
2023-01-05T09:36:18.208Z,3.54
2023-01-05T09:41:49.065Z,3.76
2023-01-05T09:46:54.616Z,3.78
2023-01-05T09:52:09.613Z,3.72
2023-01-05T09:57:23.007Z,3.82
2023-01-05T10:02:30.094Z,3.89
2023-01-05T10:13:04.356Z,3.93
2023-01-05T10:18:22.245Z,3.89
2023-01-05T10:24:18.698Z,3.81
2023-01-05T10:29:36.709Z,3.91
2023-01-05T10:34:56.444Z,3.82
2023-01-05T10:40:11.105Z,3.76
2023-01-05T10:45:16.818Z,3.74
2023-01-05T10:50:36.189Z,3.78
2023-01-05T10:56:02.054Z,3.65
2023-01-05T11:01:15.122Z,3.49
2023-01-05T11:06:22.451Z,3.75
2023-01-05T11:11:26.943Z,3.59
2023-01-05T11:16:33.070Z,3.88
2023-01-05T11:21:36.081Z,3.88
2023-01-05T11:26:49.327Z,3.84
2023-01-05T11:32:08.386Z,3.63
2023-01-05T11:37:31.517Z,3.53
2023-01-05T11:42:42.888Z,3.67
2023-01-05T11:53:06.082Z,3.50
2023-01-05T11:58:26.576Z,3.59
2023-01-05T12:03:41.431Z,3.56
2023-01-05T12:08:58.570Z,3.59
2023-01-05T12:14:16.395Z,3.60
2023-01-05T12:19:54.602Z,3.57
2023-01-05T12:25:06.941Z,3.40
2023-01-05T12:32:19.677Z,3.52
2023-01-05T12:36:11.582Z,3.46
2023-01-05T12:41:35.667Z,3.49
2023-01-05T12:46:55.897Z,3.51
2023-01-05T12:52:14.802Z,3.37
2023-01-05T12:57:39.914Z,3.33
2023-01-05T13:02:55.843Z,3.46
2023-01-05T13:08:17.909Z,3.36
2023-01-05T13:13:30.709Z,3.22
2023-01-05T13:18:37.610Z,3.27
2023-01-05T13:23:51.067Z,3.23
2023-01-05T13:28:58.929Z,2.84
2023-01-05T13:34:28.539Z,2.94
2023-01-05T13:39:44.618Z,2.83
2023-01-05T13:44:56.561Z,2.58
2023-01-05T13:55:53.288Z,2.12
2023-01-05T14:00:56.790Z,2.03
2023-01-05T14:06:02.994Z,1.98
2023-01-05T14:11:15.256Z,1.94
2023-01-05T14:16:37.807Z,1.93
2023-01-05T14:21:54.774Z,1.92
2023-01-05T14:27:10.790Z,1.84
2023-01-05T14:32:44.841Z,1.94
2023-01-05T14:37:50.909Z,2.04
2023-01-05T14:42:54.954Z,2.05
2023-01-05T14:48:03.306Z,2.06
2023-01-05T14:53:35.280Z,2.12
2023-01-05T14:58:41.658Z,2.07
2023-01-05T15:03:47.402Z,1.95
2023-01-05T15:09:09.009Z,1.84
2023-01-05T15:14:35.676Z,1.80
2023-01-05T15:19:41.319Z,1.79
2023-01-05T15:25:02.389Z,1.78
2023-01-05T15:30:24.051Z,1.69
2023-01-05T15:35:55.535Z,1.68
2023-01-05T15:41:06.990Z,1.79
2023-01-05T15:46:10.938Z,1.86
2023-01-05T15:51:32.312Z,1.75
2023-01-05T15:56:40.054Z,1.80
2023-01-05T16:01:43.180Z,1.84
2023-01-05T16:06:49.739Z,1.85
2023-01-05T16:11:58.929Z,1.79
2023-01-05T16:17:16.083Z,1.99
2023-01-05T16:22:30.735Z,2.08
2023-01-05T16:27:40.034Z,1.99
2023-01-05T16:32:43.412Z,1.87
2023-01-05T16:37:47.010Z,1.83
2023-01-05T16:42:50.749Z,1.95
2023-01-05T16:47:54.033Z,1.91
2023-01-05T16:52:57.179Z,1.89
2023-01-05T16:58:01.096Z,1.95
2023-01-05T17:03:24.101Z,1.76
2023-01-05T17:08:30.863Z,1.84
2023-01-05T17:13:41.923Z,1.93
2023-01-05T17:18:45.359Z,1.82
2023-01-05T17:23:54.697Z,1.94
2023-01-05T17:39:27.186Z,1.99
2023-01-05T17:44:30.933Z,1.67
2023-01-05T17:49:34.012Z,1.73
2023-01-05T17:54:37.088Z,1.78
2023-01-05T18:10:14.175Z,1.81
2023-01-05T18:15:18.147Z,1.70
2023-01-05T18:20:21.530Z,1.74
2023-01-05T18:25:25.256Z,1.85
2023-01-05T18:30:28.833Z,1.82
2023-01-05T18:35:36.145Z,1.90
2023-01-05T18:40:40.641Z,1.85
2023-01-05T18:45:43.879Z,1.90
2023-01-05T18:50:51.351Z,1.81
2023-01-05T18:55:54.676Z,1.86
2023-01-05T19:00:57.746Z,1.96
2023-01-05T19:06:05.240Z,2.05
2023-01-05T19:11:18.853Z,1.84
2023-01-05T19:16:24.189Z,1.84
2023-01-05T19:21:30.667Z,1.99
2023-01-05T19:26:34.298Z,1.81
2023-01-05T19:31:38.017Z,1.69
2023-01-05T19:36:41.552Z,1.68
2023-01-05T19:41:46.800Z,1.75
2023-01-05T19:46:53.525Z,1.46
2023-01-05T19:57:16.941Z,1.39
2023-01-05T20:02:20.035Z,1.31
2023-01-05T20:07:23.093Z,1.37
2023-01-05T20:12:26.188Z,1.31
2023-01-05T20:17:29.424Z,1.16
2023-01-05T20:22:32.521Z,1.09
2023-01-05T20:27:35.625Z,1.11
2023-01-05T20:32:39.018Z,1.14
2023-01-05T20:37:42.093Z,1.18
2023-01-05T20:42:45.221Z,1.07
2023-01-05T20:48:03.480Z,1.01
2023-01-05T20:53:06.539Z,1.08
2023-01-05T20:58:09.607Z,1.12
2023-01-05T21:03:13.098Z,1.34
2023-01-05T21:08:16.214Z,1.35
2023-01-05T21:13:31.480Z,1.51
2023-01-05T21:18:35.960Z,1.52
2023-01-05T21:23:39.403Z,1.69
2023-01-05T21:28:43.033Z,1.80
2023-01-05T21:33:46.841Z,1.92
2023-01-05T21:39:01.485Z,1.92
2023-01-05T21:44:07.624Z,1.73
2023-01-05T21:49:16.280Z,1.79
2023-01-05T21:54:38.824Z,1.78
2023-01-05T22:05:08.894Z,2.00
2023-01-05T22:10:16.713Z,2.26
2023-01-05T22:15:23.408Z,2.12
2023-01-05T22:20:26.452Z,2.29
2023-01-05T22:25:29.761Z,2.33
2023-01-05T22:30:33.267Z,2.38
2023-01-05T22:35:40.543Z,2.34
2023-01-05T22:40:43.679Z,2.34
2023-01-05T22:45:46.743Z,2.18
2023-01-05T22:50:49.839Z,2.26
2023-01-05T22:55:52.967Z,2.44
2023-01-05T23:00:56.060Z,2.57
2023-01-05T23:05:59.135Z,2.37
2023-01-05T23:11:11.588Z,2.46
2023-01-05T23:16:15.500Z,2.51
2023-01-05T23:21:20.319Z,2.70
2023-01-05T23:26:24.989Z,2.72
2023-01-05T23:31:28.467Z,2.75
2023-01-05T23:36:40.303Z,2.76
2023-01-05T23:41:43.542Z,2.83
2023-01-05T23:46:46.645Z,2.83
2023-01-05T23:51:49.724Z,2.96
2023-01-05T23:56:52.783Z,3.03
